LEPP/PNA METAR and TAF weather

Enter ICAO airport designator
Station Type Date Time Source
LEPP METAR 2019/07/20 19:30 UTC NOAA

LEPP 201930Z 32013KT 9999 SCT017 BKN020 20/17 Q1019


Station Type Date Time Source
LEPP Decoded METAR 2019/07/20 19:30 UTC NOAA

Pamplona / Noain, Spain (LEPP) 42-46N 001-38W 453M
Jul 20, 2019 - 03:30 PM EDT / 2019.07.20 1930 UTC
Wind: from the NW (320 degrees) at 15 MPH (13 KT):0
Visibility: greater than 7 mile(s):0
Sky conditions: mostly cloudy
Temperature: 68 F (20 C)
Dew Point: 62 F (17 C)
Relative Humidity: 82%
Pressure (altimeter): 30.09 in. Hg (1019 hPa)
ob: LEPP 201930Z 32013KT 9999 SCT017 BKN020 20/17 Q1019
cycle: 19

Station Type Date Time Source
LEPP TAF 2019/07/20 15:27 UTC NOAA

TAF LEPP 201400Z 2015/2115 34008KT 9999 FEW020 TX32/2114Z TN18/2105Z
TEMPO 2015/2021 33018KT PROB30
TEMPO 2100/2107 BKN010

Example: see airport list